This is the latest recevied weather packets stored in our database for station/object DL6DJ-15. If no packets are shown the sender has not sent any weather packets the latest 10 day(s).
| Time | Temp. | Humidity | Pressure | Rain* | Wind** | Luminosity | Snow |
|---|---|---|---|---|---|---|---|
| 1777973159 | 32.22° C | 22% | 1008.7 hPa | - | - | - | - |
| 1777972859 | 31.11° C | 22% | 1008.8 hPa | - | - | - | - |
| 1777972559 | 32.78° C | 21% | 1009 hPa | - | - | - | - |
| 1777972259 | 32.22° C | 23% | 1008.9 hPa | - | - | - | - |
| 1777971958 | 31.67° C | 23% | 1008.9 hPa | - | - | - | - |
| 1777971658 | 30° C | 26% | 1009 hPa | - | - | - | - |
| 1777971356 | 29.44° C | 26% | 1009.1 hPa | - | - | - | - |
| 1777971056 | 31.67° C | 23% | 1009.1 hPa | - | - | - | - |
| 1777970756 | 32.22° C | 22% | 1009.1 hPa | - | - | - | - |
| 1777970455 | 33.89° C | 19% | 1009.1 hPa | - | - | - | - |
| 1777970155 | 34.44° C | 19% | 1009.2 hPa | - | - | - | - |
| 1777969854 | 33.33° C | 22% | 1009.2 hPa | - | - | - | - |
| 1777969554 | 32.78° C | 24% | 1009 hPa | - | - | - | - |
| 1777969254 | 32.22° C | 24% | 1009 hPa | - | - | - | - |
| 1777968954 | 31.67° C | 25% | 1009 hPa | - | - | - | - |
| 1777968653 | 31.11° C | 25% | 1009.2 hPa | - | - | - | - |
| 1777968353 | 31.11° C | 24% | 1009.2 hPa | - | - | - | - |
| 1777968052 | 31.11° C | 26% | 1009.3 hPa | - | - | - | - |
| 1777967752 | 30.56° C | 26% | 1009.3 hPa | - | - | - | - |
| 1777967452 | 31.67° C | 24% | 1009.4 hPa | - | - | - | - |
| 1777967151 | 31.67° C | 25% | 1009.4 hPa | - | - | - | - |
| 1777966851 | 31.11° C | 25% | 1009.5 hPa | - | - | - | - |
| 1777966550 | 31.67° C | 24% | 1009.4 hPa | - | - | - | - |
| 1777966250 | 31.67° C | 24% | 1009.6 hPa | - | - | - | - |
| 1777965950 | 31.67° C | 24% | 1009.6 hPa | - | - | - | - |
* Rain since midnight (hover to see other rain measurements)
** Current wind speed in m/s (hover to see current wind gust speed)